X  Luk Metar data     EHAM Amsterdam Airport Schiphol
Temperatur
18°C Temperatur
13°C Duggpunkt
73% Fugtighed



Vind
13 KM/T
8 MPT
4 M/S
7 KNOB



50°
Nuværende forhold

Klart Klart
Tryk 1019.98 (hPa) - 30.12 (inHg)
Sigt 6 (mil) - 9.7 (km)
Lufthavn
Lufthavnskode EHAM

Lokation: Amsterdam Airport Schiphol
Afstand: 26 (km)

Metar:
EHAM 201055Z 05007KT 010V140 CAVOK 18/13 Q1020 NOSIG

Tid: 20-06-2024 12:55 CEST